Time;durP1;ratioP1;P1;durP2;ratioP2;P2;SDS_P1;SDS_P2;PMS_P1;PMS_P2;Temp;Humidity;BMP_temperature;BMP_pressure;BME280_temperature;BME280_humidity;BME280_pressure;Samples;Min_cycle;Max_cycle;Signal;HPM_P1;HPM_P2
2021/11/09 00:00:39;;;;;;;13.60;10.50;;;5.20;62.50;;;;;;4912918;29;20459;-83
2021/11/09 00:03:09;;;;;;;10.40;9.40;;;5.00;62.60;;;;;;4912762;29;20841;-83
2021/11/09 00:05:45;;;;;;;10.53;9.43;;;5.10;62.50;;;;;;4912832;29;20840;-83
2021/11/09 00:08:15;;;;;;;11.63;9.60;;;5.00;62.00;;;;;;4912793;29;20468;-83
2021/11/09 00:10:43;;;;;;;12.53;9.70;;;5.10;62.00;;;;;;4913306;29;20421;-83
2021/11/09 00:13:09;;;;;;;12.40;9.40;;;5.00;60.90;;;;;;4913761;29;20610;-84
2021/11/09 00:15:34;;;;;;;9.73;8.73;;;5.00;61.60;;;;;;4913692;29;20467;-82
2021/11/09 00:18:02;;;;;;;12.03;8.80;;;5.00;61.10;;;;;;4913709;29;20255;-83
2021/11/09 00:20:30;;;;;;;14.13;10.70;;;5.00;61.10;;;;;;4912995;29;20177;-83
2021/11/09 00:22:56;;;;;;;10.40;9.13;;;5.00;61.90;;;;;;4913070;29;20566;-83
2021/11/09 00:25:23;;;;;;;10.67;9.67;;;5.00;61.20;;;;;;4913028;29;20545;-83
2021/11/09 00:27:50;;;;;;;13.80;10.40;;;4.80;61.50;;;;;;4912767;29;20596;-83
2021/11/09 00:30:19;;;;;;;13.93;9.13;;;4.80;62.70;;;;;;4912985;29;20424;-83
2021/11/09 00:32:45;;;;;;;11.17;9.23;;;4.80;62.00;;;;;;4912841;29;20420;-82
2021/11/09 00:35:14;;;;;;;11.03;9.80;;;4.80;62.70;;;;;;4912902;29;20419;-83
2021/11/09 00:37:42;;;;;;;13.03;9.50;;;4.90;62.30;;;;;;4913979;29;20452;-83
2021/11/09 00:40:09;;;;;;;11.90;9.80;;;4.80;62.80;;;;;;4912935;29;20432;-83
2021/11/09 00:42:36;;;;;;;14.40;9.70;;;4.70;61.70;;;;;;4912778;29;20876;-83
2021/11/09 00:45:03;;;;;;;11.67;10.57;;;4.70;62.30;;;;;;4912434;29;20427;-83
2021/11/09 00:47:29;;;;;;;11.70;10.47;;;4.70;62.90;;;;;;4912553;29;20471;-83
2021/11/09 00:49:54;;;;;;;11.07;9.50;;;4.70;62.70;;;;;;4912644;29;20511;-83
2021/11/09 00:52:20;;;;;;;18.87;10.47;;;4.70;63.30;;;;;;4916594;29;20191;-83
2021/11/09 00:54:45;;;;;;;11.93;10.63;;;4.80;62.30;;;;;;4918008;29;20227;-83
2021/11/09 00:57:11;;;;;;;10.70;9.23;;;4.70;62.30;;;;;;4916112;29;20200;-83
2021/11/09 00:59:37;;;;;;;12.43;10.00;;;4.60;61.70;;;;;;4916688;29;20173;-83
2021/11/09 01:02:03;;;;;;;10.73;9.57;;;4.60;62.20;;;;;;4916487;29;20627;-83
2021/11/09 01:04:29;;;;;;;11.17;9.67;;;4.50;62.90;;;;;;4915741;29;20180;-82
2021/11/09 01:06:55;;;;;;;13.27;9.97;;;4.40;63.30;;;;;;4916489;29;20417;-83
2021/11/09 01:09:22;;;;;;;13.33;9.40;;;4.50;63.20;;;;;;4916025;29;20467;-82
2021/11/09 01:11:50;;;;;;;11.33;10.10;;;4.50;62.70;;;;;;4915887;29;20421;-82
2021/11/09 01:14:17;;;;;;;13.93;10.50;;;4.60;64.20;;;;;;4917286;29;20405;-82
2021/11/09 01:16:42;;;;;;;14.93;10.13;;;4.60;64.20;;;;;;4915363;29;20452;-83
2021/11/09 01:19:09;;;;;;;12.03;10.17;;;4.60;63.80;;;;;;4915938;29;20519;-88
2021/11/09 01:21:36;;;;;;;13.20;10.20;;;4.70;63.40;;;;;;4915918;29;20263;-88
2021/11/09 01:24:03;;;;;;;12.40;10.30;;;4.60;62.20;;;;;;4915453;29;20428;-87
2021/11/09 01:26:29;;;;;;;11.33;9.37;;;4.50;63.90;;;;;;4915275;29;20424;-87
2021/11/09 01:28:57;;;;;;;11.43;10.30;;;4.60;63.40;;;;;;4915443;29;20474;-88
2021/11/09 01:31:24;;;;;;;14.63;9.83;;;4.50;63.40;;;;;;4914799;29;20177;-83
2021/11/09 01:33:52;;;;;;;13.80;10.97;;;4.50;64.40;;;;;;4914617;29;20417;-82
2021/11/09 01:36:18;;;;;;;12.27;10.30;;;4.40;65.10;;;;;;4914017;29;20409;-82
2021/11/09 01:38:44;;;;;;;17.33;10.80;;;4.50;65.50;;;;;;4914509;29;20428;-82
2021/11/09 01:41:11;;;;;;;10.47;9.20;;;4.60;65.30;;;;;;4914212;29;20784;-83
2021/11/09 01:43:38;;;;;;;15.40;11.17;;;4.50;64.90;;;;;;4914666;29;20427;-83
2021/11/09 01:46:05;;;;;;;16.80;11.30;;;4.60;64.50;;;;;;4914032;29;20480;-83
2021/11/09 01:48:31;;;;;;;12.37;11.20;;;4.60;64.90;;;;;;4913686;29;20464;-83
2021/11/09 01:51:02;;;;;;;12.93;11.57;;;4.50;64.80;;;;;;4914110;29;20825;-82
2021/11/09 01:53:28;;;;;;;15.50;11.30;;;4.60;65.20;;;;;;4914203;29;20424;-82
2021/11/09 01:55:57;;;;;;;13.57;10.70;;;4.70;65.20;;;;;;4913549;29;20424;-82
2021/11/09 01:58:24;;;;;;;13.37;10.87;;;4.70;64.60;;;;;;4913336;29;20510;-83
2021/11/09 02:00:58;;;;;;;13.67;10.90;;;4.80;63.40;;;;;;4913785;29;20417;-83
2021/11/09 02:03:26;;;;;;;11.43;10.07;;;4.70;63.70;;;;;;4913691;29;20519;-83
2021/11/09 02:05:53;;;;;;;11.63;10.40;;;4.60;64.80;;;;;;4913853;29;20941;-87
2021/11/09 02:08:20;;;;;;;12.23;10.90;;;4.60;64.90;;;;;;4914271;29;20463;-87
2021/11/09 02:10:47;;;;;;;16.70;10.70;;;4.60;64.80;;;;;;4914303;29;20954;-87
2021/11/09 02:13:15;;;;;;;15.10;11.27;;;4.70;65.40;;;;;;4913746;29;20914;-82
2021/11/09 02:15:41;;;;;;;12.90;9.60;;;4.80;64.50;;;;;;4913477;29;20764;-82
2021/11/09 02:18:09;;;;;;;11.40;10.20;;;4.80;64.80;;;;;;4913261;29;20424;-82
2021/11/09 02:20:36;;;;;;;13.40;10.90;;;4.80;63.60;;;;;;4913561;29;20424;-82
2021/11/09 02:23:03;;;;;;;11.90;10.70;;;4.80;64.30;;;;;;4912813;29;20431;-82
2021/11/09 02:25:31;;;;;;;13.70;9.80;;;4.90;64.40;;;;;;4913315;29;20444;-81
2021/11/09 02:27:58;;;;;;;13.50;10.70;;;4.90;63.90;;;;;;4913006;29;20468;-82
2021/11/09 02:30:26;;;;;;;13.60;9.97;;;4.90;63.30;;;;;;4913357;29;20427;-83
2021/11/09 02:32:53;;;;;;;12.40;11.23;;;4.80;63.50;;;;;;4913827;29;20420;-83
2021/11/09 02:35:22;;;;;;;13.77;11.20;;;4.70;64.00;;;;;;4913289;29;20484;-83
2021/11/09 02:37:49;;;;;;;12.37;11.07;;;4.70;65.00;;;;;;4929216;29;20464;-87
2021/11/09 02:40:15;;;;;;;11.93;10.63;;;4.80;63.90;;;;;;4913094;29;20417;-87
2021/11/09 02:42:46;;;;;;;12.73;11.03;;;4.80;64.90;;;;;;4913541;29;20928;-86
2021/11/09 02:45:17;;;;;;;12.37;11.07;;;4.90;64.70;;;;;;4913976;29;20454;-87
2021/11/09 02:47:51;;;;;;;13.70;9.87;;;5.00;62.70;;;;;;4913141;29;20464;-82
2021/11/09 02:50:20;;;;;;;13.00;10.50;;;4.90;63.10;;;;;;4912523;29;20427;-82
2021/11/09 02:55:38;;;;;;;15.53;10.60;;;5.10;64.10;;;;;;4893882;29;20417;-83
2021/11/09 03:00:52;;;;;;;12.90;10.43;;;4.90;63.50;;;;;;4914056;29;20913;-82
2021/11/09 03:03:24;;;;;;;14.53;9.73;;;5.00;63.90;;;;;;4912458;29;20439;-82
2021/11/09 03:06:00;;;;;;;10.60;9.60;;;5.10;63.90;;;;;;4912906;29;20869;-83
2021/11/09 03:10:53;;;;;;;10.73;9.73;;;5.10;62.70;;;;;;4913523;29;20409;-82
2021/11/09 03:13:20;;;;;;;11.27;8.53;;;5.10;62.80;;;;;;4911740;29;20184;-82
2021/11/09 03:15:47;;;;;;;13.07;9.80;;;5.20;62.80;;;;;;4911429;29;20424;-83
2021/11/09 03:18:15;;;;;;;16.03;10.07;;;5.10;62.60;;;;;;4912761;29;20425;-87
2021/11/09 03:20:49;;;;;;;13.63;10.67;;;5.10;63.00;;;;;;4912558;29;20428;-87
2021/11/09 03:45:19;;;;;;;12.60;10.77;;;5.10;63.90;;;;;;4913782;29;20418;-82
2021/11/09 03:47:51;;;;;;;13.63;10.93;;;5.20;63.50;;;;;;4911388;29;20522;-83
2021/11/09 03:50:19;;;;;;;11.27;10.13;;;5.10;62.60;;;;;;4911766;29;20417;-83
2021/11/09 03:52:53;;;;;;;14.27;10.63;;;5.10;63.70;;;;;;4912694;29;20421;-87
2021/11/09 03:55:44;;;;;;;12.93;10.77;;;5.10;63.90;;;;;;4912989;29;20798;-87
2021/11/09 04:00:54;;;;;;;14.90;10.70;;;5.10;63.90;;;;;;4914180;29;20419;-87
2021/11/09 05:01:06;;;;;;;14.73;11.67;;;4.60;63.90;;;;;;4917523;29;20804;-86
2021/11/09 05:10:22;;;;;;;11.47;10.40;;;4.50;64.30;;;;;;4915438;29;20427;-85
2021/11/09 05:12:47;;;;;;;12.40;10.80;;;4.50;64.50;;;;;;4914415;29;20934;-85
2021/11/09 05:15:13;;;;;;;11.87;10.70;;;4.40;64.60;;;;;;4915065;29;20429;-87
2021/11/09 05:17:39;;;;;;;11.70;10.50;;;4.40;64.70;;;;;;4915070;29;20219;-88
2021/11/09 05:20:05;;;;;;;12.90;11.37;;;4.40;65.00;;;;;;4915026;29;20184;-87
2021/11/09 05:22:31;;;;;;;13.50;10.20;;;4.30;65.10;;;;;;4914736;29;20638;-88
2021/11/09 05:24:57;;;;;;;12.80;10.93;;;4.40;64.60;;;;;;4914093;29;20424;-82
2021/11/09 05:27:26;;;;;;;12.57;11.37;;;4.30;64.00;;;;;;4914061;29;20769;-82
2021/11/09 05:29:53;;;;;;;15.73;11.50;;;4.30;64.70;;;;;;4914161;29;20831;-82
2021/11/09 05:32:19;;;;;;;13.07;11.27;;;4.20;65.10;;;;;;4914222;29;20437;-81
2021/11/09 05:34:45;;;;;;;13.60;12.00;;;4.20;65.10;;;;;;4916055;29;20885;-81
2021/11/09 05:37:12;;;;;;;12.90;11.50;;;4.20;64.30;;;;;;4916192;29;20421;-81
2021/11/09 05:39:47;;;;;;;11.90;10.57;;;4.10;65.80;;;;;;4915019;29;20437;-81
2021/11/09 05:42:14;;;;;;;12.50;11.30;;;4.20;65.40;;;;;;4915904;29;20460;-82
2021/11/09 05:44:40;;;;;;;15.80;11.20;;;4.20;65.00;;;;;;4915643;29;20439;-82
2021/11/09 05:47:06;;;;;;;13.33;11.13;;;4.10;65.50;;;;;;4915006;29;20810;-82
2021/11/09 05:49:32;;;;;;;12.50;11.00;;;4.10;66.00;;;;;;4916144;29;20527;-82
2021/11/09 05:51:59;;;;;;;14.67;11.90;;;4.10;64.90;;;;;;4918146;29;20417;-82
2021/11/09 05:54:25;;;;;;;15.07;12.47;;;4.00;66.00;;;;;;4916036;29;20428;-82
2021/11/09 05:56:50;;;;;;;12.10;10.90;;;4.00;66.20;;;;;;4885838;29;1106023;-82
2021/11/09 05:59:16;;;;;;;13.47;12.03;;;4.00;66.10;;;;;;4924688;29;20181;-82
2021/11/09 06:01:42;;;;;;;13.67;12.20;;;4.00;66.70;;;;;;4916371;29;20181;-82
2021/11/09 06:04:07;;;;;;;15.93;12.40;;;4.00;66.70;;;;;;4915845;29;20315;-81
2021/11/09 06:06:33;;;;;;;13.40;12.20;;;4.00;66.80;;;;;;4916054;29;20650;-81
2021/11/09 06:08:59;;;;;;;16.33;12.57;;;4.00;66.40;;;;;;4915492;29;20268;-81
2021/11/09 06:11:24;;;;;;;14.53;11.87;;;4.10;66.60;;;;;;4916755;29;20181;-81
2021/11/09 06:13:50;;;;;;;14.90;12.90;;;4.00;66.30;;;;;;4916067;29;20177;-81
2021/11/09 06:16:16;;;;;;;13.37;11.97;;;4.00;66.70;;;;;;4915858;29;20180;-82
2021/11/09 06:18:42;;;;;;;13.33;12.03;;;4.00;66.30;;;;;;4915688;29;20181;-82
2021/11/09 06:21:08;;;;;;;17.03;12.90;;;4.10;66.80;;;;;;4915883;29;20431;-83
2021/11/09 06:23:34;;;;;;;15.07;13.30;;;4.00;66.70;;;;;;4916118;29;20425;-81
2021/11/09 06:26:00;;;;;;;14.80;13.17;;;4.00;66.00;;;;;;4916105;29;20484;-83
2021/11/09 06:28:26;;;;;;;14.27;11.73;;;4.00;66.60;;;;;;4915724;29;20572;-82
2021/11/09 06:30:53;;;;;;;15.43;11.77;;;4.00;66.10;;;;;;4916067;29;20416;-87
2021/11/09 06:33:19;;;;;;;17.40;12.40;;;4.00;66.00;;;;;;4916724;29;20799;-89
2021/11/09 06:35:45;;;;;;;15.57;12.43;;;4.00;65.70;;;;;;4932535;29;20409;-88
2021/11/09 06:38:11;;;;;;;12.47;11.27;;;4.10;65.30;;;;;;4921158;29;20442;-88
2021/11/09 06:40:37;;;;;;;17.27;12.60;;;4.00;65.00;;;;;;4936666;29;20243;-88
2021/11/09 06:43:05;;;;;;;12.60;11.37;;;3.90;65.00;;;;;;4935827;29;20420;-88
2021/11/09 06:45:30;;;;;;;12.57;11.27;;;4.00;64.90;;;;;;4935786;29;20515;-87
2021/11/09 06:47:56;;;;;;;12.30;11.10;;;4.00;64.80;;;;;;4934881;29;20547;-88
2021/11/09 06:50:22;;;;;;;12.43;11.17;;;3.90;64.10;;;;;;4935127;29;20180;-89
2021/11/09 06:52:48;;;;;;;15.70;10.60;;;3.90;63.50;;;;;;4931960;29;20175;-88
2021/11/09 06:55:14;;;;;;;11.67;10.33;;;4.00;63.50;;;;;;4935219;29;20432;-89
2021/11/09 06:57:44;;;;;;;17.33;11.43;;;3.90;63.50;;;;;;4951006;29;20924;-90
2021/11/09 07:00:14;;;;;;;15.03;11.60;;;3.90;64.30;;;;;;4952927;29;20420;-91
2021/11/09 07:02:40;;;;;;;16.17;12.93;;;4.00;64.60;;;;;;4952126;29;20450;-90
2021/11/09 07:05:06;;;;;;;15.50;13.27;;;4.10;63.70;;;;;;4951684;29;20427;-82
2021/11/09 07:07:32;;;;;;;15.70;12.60;;;4.10;63.20;;;;;;4935254;29;20411;-82
2021/11/09 07:09:58;;;;;;;12.90;11.60;;;4.10;64.20;;;;;;4950233;29;20782;-81
2021/11/09 07:12:24;;;;;;;13.27;11.97;;;4.00;64.80;;;;;;4950737;29;20180;-81
2021/11/09 07:14:50;;;;;;;14.47;12.13;;;4.00;65.10;;;;;;4935845;29;20227;-81
2021/11/09 07:17:16;;;;;;;14.40;12.30;;;4.00;64.60;;;;;;4951619;29;20190;-89
2021/11/09 07:19:47;;;;;;;13.50;11.70;;;4.10;65.00;;;;;;4953168;29;20416;-89
2021/11/09 07:22:13;;;;;;;14.80;13.23;;;4.10;64.20;;;;;;4952505;29;20452;-89
2021/11/09 07:24:39;;;;;;;18.57;14.10;;;4.20;64.20;;;;;;4952516;29;20439;-89
2021/11/09 07:27:05;;;;;;;20.17;14.20;;;4.20;63.80;;;;;;4951716;29;20443;-90
2021/11/09 07:29:31;;;;;;;20.27;13.77;;;4.20;64.40;;;;;;4951249;29;20476;-89
2021/11/09 07:31:57;;;;;;;16.70;12.67;;;4.10;64.00;;;;;;4950256;29;20594;-83
2021/11/09 07:34:23;;;;;;;15.60;12.67;;;4.10;63.40;;;;;;4950596;29;20176;-83
2021/11/09 07:36:48;;;;;;;14.17;12.53;;;4.20;64.70;;;;;;4950403;29;20416;-88
2021/11/09 07:39:14;;;;;;;17.70;13.63;;;4.20;63.60;;;;;;4952856;29;20841;-87
2021/11/09 07:41:40;;;;;;;15.77;14.10;;;4.10;63.60;;;;;;4935524;29;20190;-88
2021/11/09 07:44:08;;;;;;;14.93;13.40;;;4.10;63.00;;;;;;4952610;29;20219;-89
2021/11/09 07:46:35;;;;;;;15.13;13.63;;;4.10;63.50;;;;;;4952042;29;20495;-88
2021/11/09 07:49:02;;;;;;;17.43;12.90;;;4.20;63.30;;;;;;4951481;29;20463;-88
2021/11/09 07:51:28;;;;;;;19.20;13.40;;;4.20;63.20;;;;;;4951553;29;20506;-87
2021/11/09 07:53:57;;;;;;;14.97;13.47;;;4.30;62.80;;;;;;4951022;29;20459;-88
2021/11/09 07:56:25;;;;;;;17.60;14.60;;;4.40;62.60;;;;;;4935031;29;20471;-87
2021/11/09 07:59:04;;;;;;;16.10;14.40;;;4.50;62.40;;;;;;4950693;29;20427;-86
2021/11/09 08:01:42;;;;;;;18.03;14.67;;;4.50;63.20;;;;;;4950680;28;20439;-86
2021/11/09 08:04:12;;;;;;;16.17;14.43;;;4.50;61.70;;;;;;4950447;29;20475;-89
2021/11/09 08:09:15;;;;;;;16.37;13.97;;;4.50;61.40;;;;;;4937046;29;20467;-86
2021/11/09 08:11:42;;;;;;;15.50;13.27;;;4.50;61.20;;;;;;4951565;29;20518;-85
2021/11/09 08:14:09;;;;;;;20.53;14.93;;;4.50;60.70;;;;;;4954415;29;20439;-87
2021/11/09 08:16:35;;;;;;;18.00;13.67;;;4.50;61.00;;;;;;4936486;29;21038;-86
2021/11/09 08:19:01;;;;;;;20.33;15.30;;;4.60;61.70;;;;;;4950357;29;20428;-86
2021/11/09 08:21:27;;;;;;;16.80;15.07;;;4.70;61.90;;;;;;4950466;29;20429;-84
2021/11/09 08:23:53;;;;;;;21.97;13.60;;;4.70;61.80;;;;;;4949971;29;20435;-85
2021/11/09 08:26:22;;;;;;;17.30;13.63;;;4.70;61.50;;;;;;4934883;29;20412;-86
2021/11/09 08:28:49;;;;;;;15.03;12.60;;;4.80;61.70;;;;;;4949518;29;20693;-87
2021/11/09 08:31:18;;;;;;;18.97;13.87;;;4.90;60.10;;;;;;4950407;29;20427;-86
2021/11/09 08:33:44;;;;;;;20.60;13.70;;;4.90;59.20;;;;;;4950436;29;20436;-85
2021/11/09 08:36:14;;;;;;;17.10;13.67;;;4.80;59.20;;;;;;4950268;29;21154;-86
2021/11/09 08:38:41;;;;;;;15.13;12.67;;;4.80;59.30;;;;;;4950218;29;20447;-86
2021/11/09 08:41:08;;;;;;;13.70;12.33;;;4.80;59.70;;;;;;4949904;29;20793;-86
2021/11/09 08:43:37;;;;;;;14.27;12.77;;;5.00;60.10;;;;;;4950054;29;20446;-86
2021/11/09 08:48:38;;;;;;;15.67;11.73;;;5.10;59.70;;;;;;4935472;29;20456;-86
2021/11/09 08:51:08;;;;;;;13.43;11.50;;;5.20;59.40;;;;;;4950099;29;20431;-86
2021/11/09 08:53:40;;;;;;;15.53;11.33;;;5.20;57.70;;;;;;4949933;29;20503;-88
2021/11/09 09:04:11;;;;;;;12.13;10.93;;;5.40;58.20;;;;;;4935576;29;20443;-86
2021/11/09 09:07:07;;;;;;;11.57;10.53;;;5.70;57.40;;;;;;4935341;29;20420;-86
2021/11/09 09:09:33;;;;;;;10.33;9.43;;;5.80;56.40;;;;;;4946459;29;20216;-86
2021/11/09 09:11:59;;;;;;;11.03;9.77;;;5.80;56.70;;;;;;4934374;29;20491;-86
2021/11/09 09:14:25;;;;;;;11.27;8.70;;;5.90;55.70;;;;;;4938406;29;20188;-86
2021/11/09 09:16:53;;;;;;;8.60;7.70;;;5.90;53.20;;;;;;4937224;29;20935;-86
2021/11/09 09:19:24;;;;;;;10.63;7.27;;;5.90;53.30;;;;;;4937141;29;20459;-86
2021/11/09 09:27:33;;;;;;;9.07;8.13;;;6.10;51.60;;;;;;4938529;29;20403;-86
2021/11/09 09:30:30;;;;;;;10.40;8.43;;;6.20;52.10;;;;;;4936091;29;20428;-82
2021/11/09 09:57:27;;;;;;;10.87;8.83;;;7.20;48.70;;;;;;4938116;29;20437;-87
2021/11/09 09:59:54;;;;;;;11.50;8.53;;;7.20;49.00;;;;;;4937188;29;20548;-88
2021/11/09 10:02:29;;;;;;;9.90;8.10;;;7.30;50.10;;;;;;4936734;29;20427;-87
2021/11/09 10:05:22;;;;;;;9.10;7.30;;;7.40;47.80;;;;;;4936992;29;20430;-86
2021/11/09 10:07:54;;;;;;;10.70;8.03;;;7.30;48.10;;;;;;4934144;29;20455;-88
2021/11/09 10:10:21;;;;;;;9.33;6.63;;;7.30;48.30;;;;;;4937000;29;20423;-88
2021/11/09 10:13:08;;;;;;;11.47;8.13;;;7.30;48.80;;;;;;4937244;29;20971;-87
2021/11/09 10:15:34;;;;;;;6.70;6.10;;;7.30;48.60;;;;;;4936702;29;20909;-87
2021/11/09 10:18:21;;;;;;;9.40;7.10;;;7.40;47.10;;;;;;4936832;29;20427;-87
2021/11/09 10:20:53;;;;;;;6.60;5.20;;;7.40;46.50;;;;;;4936392;29;20429;-87
2021/11/09 10:23:31;;;;;;;6.40;5.13;;;7.50;47.00;;;;;;4936116;29;20423;-88
2021/11/09 10:26:17;;;;;;;6.47;5.53;;;7.50;47.50;;;;;;4937062;29;20467;-88
2021/11/09 10:28:45;;;;;;;7.23;5.10;;;7.50;46.40;;;;;;4937118;29;21001;-87
2021/11/09 10:31:15;;;;;;;10.70;4.97;;;7.60;46.20;;;;;;4937974;29;20459;-87
2021/11/09 10:33:44;;;;;;;6.90;4.97;;;7.70;44.70;;;;;;4936971;29;20419;-88
2021/11/09 10:36:29;;;;;;;8.20;4.90;;;7.70;46.10;;;;;;4936764;29;20518;-88
2021/11/09 10:39:17;;;;;;;7.30;4.20;;;7.70;45.50;;;;;;4937181;29;20454;-88
2021/11/09 10:42:12;;;;;;;7.80;4.70;;;7.80;45.00;;;;;;4937496;29;20424;-88
2021/11/09 10:44:40;;;;;;;5.07;4.67;;;7.80;44.80;;;;;;4937830;29;20411;-88
2021/11/09 10:47:24;;;;;;;6.67;4.30;;;7.90;45.20;;;;;;4937242;29;20439;-87
2021/11/09 10:50:23;;;;;;;4.80;4.40;;;7.90;44.30;;;;;;4937432;29;21063;-88
2021/11/09 10:53:14;;;;;;;5.90;4.63;;;8.10;44.60;;;;;;4937353;29;20437;-88
2021/11/09 10:56:11;;;;;;;5.90;4.93;;;8.00;44.60;;;;;;4937496;29;20495;-88
2021/11/09 11:04:09;;;;;;;6.93;5.10;;;8.30;45.30;;;;;;4939969;29;20404;-88
2021/11/09 11:06:41;;;;;;;8.10;4.80;;;8.30;46.90;;;;;;4937162;29;20411;-89
2021/11/09 11:09:08;;;;;;;7.23;4.93;;;8.20;45.60;;;;;;4937203;29;20466;-87
2021/11/09 11:11:38;;;;;;;5.50;4.47;;;8.20;45.70;;;;;;4937629;29;20430;-88
2021/11/09 11:14:11;;;;;;;6.30;4.77;;;8.30;43.50;;;;;;4939068;29;20412;-88
2021/11/09 11:16:40;;;;;;;6.83;4.43;;;8.30;44.20;;;;;;4937279;29;20431;-84
2021/11/09 11:19:07;;;;;;;5.40;4.47;;;8.30;43.90;;;;;;4934997;29;20435;-83
2021/11/09 11:21:33;;;;;;;5.37;4.00;;;8.40;44.20;;;;;;4934723;29;20431;-82
2021/11/09 11:23:59;;;;;;;6.03;4.40;;;8.40;43.70;;;;;;4935138;29;20566;-82
2021/11/09 11:26:25;;;;;;;6.00;4.17;;;8.50;43.60;;;;;;4935271;29;20531;-82
2021/11/09 11:28:54;;;;;;;5.33;4.83;;;8.60;43.30;;;;;;4934752;29;20595;-83
2021/11/09 11:31:21;;;;;;;6.07;3.77;;;8.60;43.20;;;;;;4936629;29;20176;-89
2021/11/09 11:33:50;;;;;;;4.80;4.00;;;8.70;45.00;;;;;;4936548;29;20428;-88
2021/11/09 11:36:16;;;;;;;9.00;4.17;;;8.60;44.80;;;;;;4937638;29;20507;-87
2021/11/09 11:38:45;;;;;;;6.40;3.87;;;8.60;44.60;;;;;;4935891;29;20816;-88
2021/11/09 11:41:11;;;;;;;6.13;4.80;;;8.60;43.90;;;;;;4936299;29;20949;-88
2021/11/09 11:43:43;;;;;;;4.90;4.40;;;8.70;43.60;;;;;;4937118;29;20436;-88
2021/11/09 11:46:12;;;;;;;8.20;4.70;;;8.70;43.10;;;;;;4937043;29;20768;-87
2021/11/09 11:49:01;;;;;;;7.73;4.60;;;8.80;42.60;;;;;;4937005;29;20479;-88
2021/11/09 11:51:29;;;;;;;8.00;5.03;;;8.90;42.80;;;;;;4936820;29;20912;-86
2021/11/09 11:53:55;;;;;;;6.23;5.47;;;8.80;43.10;;;;;;4935963;29;20453;-88
2021/11/09 11:56:42;;;;;;;6.67;4.90;;;8.90;42.70;;;;;;4938087;29;20442;-88
2021/11/09 11:59:37;;;;;;;8.37;4.77;;;9.00;42.30;;;;;;4940187;29;20443;-87
2021/11/09 12:02:05;;;;;;;6.17;5.00;;;9.10;41.80;;;;;;4936409;29;20428;-87
2021/11/09 12:04:54;;;;;;;6.53;4.90;;;9.00;41.80;;;;;;4936758;29;20418;-88
2021/11/09 12:07:40;;;;;;;10.10;5.30;;;9.10;41.90;;;;;;4936154;29;20412;-87
2021/11/09 12:10:08;;;;;;;4.37;3.97;;;9.10;41.20;;;;;;4941426;29;20427;-86
2021/11/09 12:12:35;;;;;;;4.50;3.90;;;9.30;41.10;;;;;;4941530;29;20486;-86
2021/11/09 12:15:08;;;;;;;7.30;4.53;;;9.30;40.90;;;;;;4939972;29;20920;-86
2021/11/09 12:17:43;;;;;;;5.80;4.30;;;9.30;41.70;;;;;;4939730;29;20766;-87
2021/11/09 12:20:10;;;;;;;5.27;4.10;;;9.30;41.20;;;;;;4936420;29;20403;-88
2021/11/09 12:22:50;;;;;;;10.17;5.07;;;9.30;41.00;;;;;;4936924;29;20420;-87
2021/11/09 12:25:22;;;;;;;4.80;3.70;;;9.30;41.60;;;;;;4936824;29;20900;-87
2021/11/09 12:27:54;;;;;;;6.03;3.80;;;9.40;40.90;;;;;;4936707;29;20420;-87
2021/11/09 12:30:38;;;;;;;5.40;3.80;;;9.30;41.30;;;;;;4936854;29;20420;-88
2021/11/09 12:33:16;;;;;;;3.27;2.93;;;9.30;42.00;;;;;;4936822;29;20423;-88
2021/11/09 12:35:44;;;;;;;6.03;3.40;;;9.40;39.30;;;;;;4936798;29;20420;-83
2021/11/09 12:38:20;;;;;;;5.83;3.47;;;9.50;39.90;;;;;;4934401;29;21049;-82
2021/11/09 12:40:48;;;;;;;5.80;3.87;;;9.50;38.00;;;;;;4934390;29;20761;-82
2021/11/09 12:43:23;;;;;;;4.47;3.27;;;9.50;39.10;;;;;;4934308;29;20446;-85
2021/11/09 12:46:00;;;;;;;6.03;3.40;;;9.60;38.70;;;;;;4934398;29;20420;-82
2021/11/09 12:48:29;;;;;;;7.67;3.37;;;9.60;38.80;;;;;;4937118;29;20457;-82
2021/11/09 12:50:59;;;;;;;5.00;3.37;;;9.50;40.00;;;;;;4937736;29;20916;-82
2021/11/09 12:53:26;;;;;;;3.47;3.17;;;9.60;38.30;;;;;;4938098;29;20420;-82
2021/11/09 12:56:01;;;;;;;4.27;3.80;;;9.60;39.30;;;;;;4937865;29;20412;-82
2021/11/09 12:58:29;;;;;;;4.60;4.20;;;9.60;39.00;;;;;;4938156;29;20427;-82
2021/11/09 13:09:49;;;;;;;8.53;4.13;;;9.60;37.80;;;;;;4938975;29;20455;-82
2021/11/09 13:12:18;;;;;;;4.57;3.60;;;9.70;38.30;;;;;;4938235;29;20525;-82
2021/11/09 13:14:46;;;;;;;5.60;3.30;;;9.70;38.90;;;;;;4937735;29;20801;-81
2021/11/09 13:17:16;;;;;;;5.17;4.67;;;9.60;39.40;;;;;;4937537;29;20459;-81
2021/11/09 13:19:44;;;;;;;4.10;3.73;;;9.70;37.80;;;;;;4937721;29;20431;-82
2021/11/09 13:22:16;;;;;;;6.67;3.80;;;9.70;38.00;;;;;;4938059;29;20515;-82
2021/11/09 13:25:04;;;;;;;3.80;3.50;;;9.70;37.80;;;;;;4937580;29;20434;-83
2021/11/09 13:27:37;;;;;;;5.60;4.10;;;9.80;37.10;;;;;;4937298;29;20438;-80
2021/11/09 13:30:20;;;;;;;5.97;3.23;;;9.80;36.20;;;;;;4938606;29;20424;-82
2021/11/09 13:32:57;;;;;;;7.00;3.67;;;10.00;36.00;;;;;;4937561;29;20412;-83
2021/11/09 13:35:29;;;;;;;3.43;2.77;;;9.90;38.20;;;;;;4938527;29;20404;-88
2021/11/09 13:38:10;;;;;;;3.67;3.33;;;9.90;38.00;;;;;;4939002;29;20416;-90
2021/11/09 13:40:38;;;;;;;5.10;3.40;;;9.90;37.00;;;;;;4941014;29;20491;-89
2021/11/09 13:43:06;;;;;;;6.37;3.20;;;9.80;36.80;;;;;;4939995;29;20418;-87
2021/11/09 13:45:33;;;;;;;5.13;3.20;;;9.80;37.90;;;;;;4939719;29;20949;-87
2021/11/09 13:47:59;;;;;;;5.13;4.10;;;9.80;36.80;;;;;;4940314;29;20447;-88
2021/11/09 13:50:27;;;;;;;6.27;3.80;;;9.90;36.30;;;;;;4939319;29;20420;-88
2021/11/09 13:52:54;;;;;;;3.77;3.33;;;10.00;35.20;;;;;;4938239;29;20180;-86
2021/11/09 13:55:21;;;;;;;4.03;3.30;;;10.00;35.70;;;;;;4937816;29;20444;-86
2021/11/09 13:57:48;;;;;;;5.47;3.60;;;9.90;37.50;;;;;;4936747;29;20435;-86
2021/11/09 14:00:28;;;;;;;4.17;3.67;;;9.80;36.00;;;;;;4934858;29;20619;-86
2021/11/09 14:03:15;;;;;;;3.60;3.30;;;9.90;36.20;;;;;;4919094;29;20503;-86
2021/11/09 14:16:39;;;;;;;6.13;3.60;;;9.80;36.50;;;;;;4919033;29;20512;-82
2021/11/09 14:19:11;;;;;;;4.60;3.03;;;9.90;36.00;;;;;;4917651;29;20413;-84
2021/11/09 14:21:40;;;;;;;4.10;3.20;;;9.80;37.40;;;;;;4917478;29;20465;-83
2021/11/09 14:24:17;;;;;;;4.90;4.40;;;9.80;35.70;;;;;;4917248;29;20488;-83
2021/11/09 14:26:44;;;;;;;4.47;3.57;;;9.80;36.00;;;;;;4917190;29;20494;-83
2021/11/09 14:29:21;;;;;;;4.60;2.93;;;9.80;36.80;;;;;;4917648;29;20495;-84
2021/11/09 14:31:59;;;;;;;4.03;3.63;;;9.80;35.80;;;;;;4932728;29;20421;-84
2021/11/09 14:34:27;;;;;;;4.07;2.87;;;9.80;37.00;;;;;;4917120;29;20645;-83
2021/11/09 14:36:58;;;;;;;7.83;3.83;;;9.80;36.50;;;;;;4916743;29;20451;-83
2021/11/09 14:39:27;;;;;;;3.90;3.30;;;9.70;37.50;;;;;;4917433;29;20843;-83
2021/11/09 14:47:46;;;;;;;4.47;3.20;;;9.80;36.30;;;;;;4917696;29;20818;-84
2021/11/09 14:50:20;;;;;;;6.73;3.37;;;9.80;37.50;;;;;;4916686;29;20476;-83
2021/11/09 14:52:47;;;;;;;4.40;3.17;;;9.70;37.70;;;;;;4916681;29;20405;-83
2021/11/09 14:55:19;;;;;;;3.77;3.47;;;9.90;36.90;;;;;;4917480;29;20810;-83
2021/11/09 14:57:46;;;;;;;5.70;2.87;;;9.80;37.40;;;;;;4916154;29;20445;-82
2021/11/09 15:00:14;;;;;;;5.43;3.10;;;9.80;36.50;;;;;;4916372;29;20417;-83
2021/11/09 15:02:41;;;;;;;3.53;3.07;;;9.90;36.20;;;;;;4916671;29;20429;-83
2021/11/09 15:05:14;;;;;;;4.33;3.77;;;9.90;35.70;;;;;;4916128;29;20419;-84
2021/11/09 15:07:56;;;;;;;3.20;2.90;;;9.80;36.30;;;;;;4916319;29;20409;-82
2021/11/09 15:24:56;;;;;;;3.90;2.80;;;9.70;36.90;;;;;;4916159;29;20429;-83
2021/11/09 15:29:57;;;;;;;4.07;3.67;;;9.60;36.50;;;;;;4916729;29;20824;-83
2021/11/09 15:32:31;;;;;;;5.07;3.43;;;9.50;36.70;;;;;;4915900;29;20424;-84
2021/11/09 15:37:37;;;;;;;4.20;3.33;;;9.50;36.20;;;;;;4917614;29;20495;-84
2021/11/09 15:40:07;;;;;;;3.90;3.20;;;9.50;37.60;;;;;;4927809;29;20443;-82
2021/11/09 15:42:33;;;;;;;3.63;3.33;;;9.40;36.50;;;;;;4934991;29;20960;-82
2021/11/09 15:44:59;;;;;;;5.10;4.17;;;9.50;36.80;;;;;;4934823;29;20519;-83
2021/11/09 15:47:25;;;;;;;6.67;4.50;;;9.40;36.50;;;;;;4934559;29;20972;-83
2021/11/09 15:49:51;;;;;;;5.30;4.00;;;9.40;36.90;;;;;;4934753;29;20207;-82
2021/11/09 15:52:18;;;;;;;7.73;4.77;;;9.30;37.20;;;;;;4934792;29;20451;-83
2021/11/09 15:54:44;;;;;;;5.07;4.50;;;9.30;37.30;;;;;;4935993;29;20421;-83
2021/11/09 15:57:10;;;;;;;7.80;4.30;;;9.30;37.20;;;;;;4934473;29;20951;-83
2021/11/09 15:59:36;;;;;;;6.20;3.80;;;9.20;38.40;;;;;;4926840;29;20428;-82
2021/11/09 16:02:02;;;;;;;5.80;3.50;;;9.20;37.40;;;;;;4931007;29;20436;-80
2021/11/09 16:04:31;;;;;;;5.40;3.73;;;9.30;38.00;;;;;;4932129;29;20184;-82
2021/11/09 16:06:58;;;;;;;3.40;2.90;;;9.50;37.10;;;;;;4932042;29;20560;-82
2021/11/09 16:09:24;;;;;;;7.80;3.23;;;9.50;36.80;;;;;;4931801;29;20464;-81